sensor_id;sensor_type;location;lat;lon;timestamp;P1;durP1;ratioP1;P2;durP2;ratioP2
11121;SDS011;5615;49.304;10.576;2023-04-25T00:01:19;8.20;;;5.90;;
11121;SDS011;5615;49.304;10.576;2023-04-25T00:03:46;6.30;;;5.70;;
11121;SDS011;5615;49.304;10.576;2023-04-25T00:06:13;7.20;;;5.57;;
11121;SDS011;5615;49.304;10.576;2023-04-25T00:08:40;7.03;;;5.77;;
11121;SDS011;5615;49.304;10.576;2023-04-25T00:11:08;7.20;;;6.20;;
11121;SDS011;5615;49.304;10.576;2023-04-25T00:13:34;7.57;;;6.10;;
11121;SDS011;5615;49.304;10.576;2023-04-25T00:16:01;6.43;;;5.83;;
11121;SDS011;5615;49.304;10.576;2023-04-25T00:18:29;7.20;;;6.10;;
11121;SDS011;5615;49.304;10.576;2023-04-25T00:20:58;8.40;;;6.57;;
11121;SDS011;5615;49.304;10.576;2023-04-25T00:23:25;9.20;;;6.27;;
11121;SDS011;5615;49.304;10.576;2023-04-25T00:25:51;7.33;;;5.63;;
11121;SDS011;5615;49.304;10.576;2023-04-25T00:28:19;7.63;;;6.73;;
11121;SDS011;5615;49.304;10.576;2023-04-25T00:30:46;8.17;;;7.17;;
11121;SDS011;5615;49.304;10.576;2023-04-25T00:33:12;7.50;;;6.70;;
11121;SDS011;5615;49.304;10.576;2023-04-25T00:35:39;7.73;;;6.67;;
11121;SDS011;5615;49.304;10.576;2023-04-25T00:38:06;7.63;;;6.60;;
11121;SDS011;5615;49.304;10.576;2023-04-25T00:40:32;7.53;;;6.80;;
11121;SDS011;5615;49.304;10.576;2023-04-25T00:42:59;7.33;;;6.30;;
11121;SDS011;5615;49.304;10.576;2023-04-25T00:45:28;7.33;;;6.20;;
11121;SDS011;5615;49.304;10.576;2023-04-25T00:47:55;7.03;;;6.33;;
11121;SDS011;5615;49.304;10.576;2023-04-25T00:50:22;8.37;;;6.60;;
11121;SDS011;5615;49.304;10.576;2023-04-25T00:52:49;7.93;;;5.90;;
11121;SDS011;5615;49.304;10.576;2023-04-25T00:55:16;7.23;;;6.50;;
11121;SDS011;5615;49.304;10.576;2023-04-25T00:57:43;6.83;;;6.13;;
11121;SDS011;5615;49.304;10.576;2023-04-25T01:00:10;10.37;;;6.70;;
11121;SDS011;5615;49.304;10.576;2023-04-25T01:02:39;7.83;;;6.77;;
11121;SDS011;5615;49.304;10.576;2023-04-25T01:05:07;7.53;;;6.07;;
11121;SDS011;5615;49.304;10.576;2023-04-25T01:07:34;8.00;;;6.80;;
11121;SDS011;5615;49.304;10.576;2023-04-25T01:10:01;7.67;;;6.87;;
11121;SDS011;5615;49.304;10.576;2023-04-25T01:12:28;7.53;;;6.63;;
11121;SDS011;5615;49.304;10.576;2023-04-25T01:14:55;7.77;;;6.97;;
11121;SDS011;5615;49.304;10.576;2023-04-25T01:17:22;7.77;;;6.97;;
11121;SDS011;5615;49.304;10.576;2023-04-25T01:19:50;9.07;;;7.07;;
11121;SDS011;5615;49.304;10.576;2023-04-25T01:22:18;8.83;;;7.87;;
11121;SDS011;5615;49.304;10.576;2023-04-25T01:24:45;8.97;;;7.97;;
11121;SDS011;5615;49.304;10.576;2023-04-25T01:27:12;10.80;;;8.40;;
11121;SDS011;5615;49.304;10.576;2023-04-25T01:29:40;8.70;;;7.57;;
11121;SDS011;5615;49.304;10.576;2023-04-25T01:32:07;8.50;;;7.60;;
11121;SDS011;5615;49.304;10.576;2023-04-25T01:34:34;9.70;;;7.47;;
11121;SDS011;5615;49.304;10.576;2023-04-25T01:37:01;11.67;;;8.27;;
11121;SDS011;5615;49.304;10.576;2023-04-25T01:39:28;10.83;;;7.90;;
11121;SDS011;5615;49.304;10.576;2023-04-25T01:41:55;9.80;;;8.53;;
11121;SDS011;5615;49.304;10.576;2023-04-25T01:44:23;9.47;;;7.63;;
11121;SDS011;5615;49.304;10.576;2023-04-25T01:46:50;9.57;;;8.53;;
11121;SDS011;5615;49.304;10.576;2023-04-25T01:49:17;10.17;;;8.73;;
11121;SDS011;5615;49.304;10.576;2023-04-25T01:51:44;13.40;;;8.13;;
11121;SDS011;5615;49.304;10.576;2023-04-25T01:54:10;10.83;;;9.03;;
11121;SDS011;5615;49.304;10.576;2023-04-25T01:56:39;10.17;;;8.60;;
11121;SDS011;5615;49.304;10.576;2023-04-25T01:59:06;10.33;;;8.27;;
11121;SDS011;5615;49.304;10.576;2023-04-25T02:01:33;10.43;;;8.43;;
11121;SDS011;5615;49.304;10.576;2023-04-25T02:04:00;11.13;;;9.20;;
11121;SDS011;5615;49.304;10.576;2023-04-25T02:06:26;9.93;;;8.93;;
11121;SDS011;5615;49.304;10.576;2023-04-25T02:08:53;11.00;;;8.23;;
11121;SDS011;5615;49.304;10.576;2023-04-25T02:11:20;10.77;;;8.73;;
11121;SDS011;5615;49.304;10.576;2023-04-25T02:13:48;9.60;;;8.37;;
11121;SDS011;5615;49.304;10.576;2023-04-25T02:16:14;10.47;;;9.20;;
11121;SDS011;5615;49.304;10.576;2023-04-25T02:18:41;9.77;;;8.40;;
11121;SDS011;5615;49.304;10.576;2023-04-25T02:21:07;13.30;;;9.23;;
11121;SDS011;5615;49.304;10.576;2023-04-25T02:23:34;10.17;;;9.07;;
11121;SDS011;5615;49.304;10.576;2023-04-25T02:26:01;12.30;;;9.10;;
11121;SDS011;5615;49.304;10.576;2023-04-25T02:28:27;9.83;;;8.73;;
11121;SDS011;5615;49.304;10.576;2023-04-25T02:30:55;10.50;;;9.40;;
11121;SDS011;5615;49.304;10.576;2023-04-25T02:33:22;10.57;;;8.87;;
11121;SDS011;5615;49.304;10.576;2023-04-25T02:35:49;11.33;;;10.03;;
11121;SDS011;5615;49.304;10.576;2023-04-25T02:38:15;11.87;;;9.50;;
11121;SDS011;5615;49.304;10.576;2023-04-25T02:40:42;12.30;;;9.93;;
11121;SDS011;5615;49.304;10.576;2023-04-25T02:43:09;12.00;;;10.67;;
11121;SDS011;5615;49.304;10.576;2023-04-25T02:45:35;11.73;;;10.30;;
11121;SDS011;5615;49.304;10.576;2023-04-25T02:48:04;12.20;;;9.97;;
11121;SDS011;5615;49.304;10.576;2023-04-25T02:50:31;13.90;;;10.80;;
11121;SDS011;5615;49.304;10.576;2023-04-25T02:52:57;12.57;;;10.27;;
11121;SDS011;5615;49.304;10.576;2023-04-25T02:55:24;11.37;;;10.17;;
11121;SDS011;5615;49.304;10.576;2023-04-25T02:57:51;12.93;;;9.77;;
11121;SDS011;5615;49.304;10.576;2023-04-25T03:00:17;11.13;;;9.70;;
11121;SDS011;5615;49.304;10.576;2023-04-25T03:02:44;11.20;;;10.00;;
11121;SDS011;5615;49.304;10.576;2023-04-25T03:05:12;14.20;;;9.33;;
11121;SDS011;5615;49.304;10.576;2023-04-25T03:07:38;10.67;;;9.07;;
11121;SDS011;5615;49.304;10.576;2023-04-25T03:10:05;11.53;;;9.70;;
11121;SDS011;5615;49.304;10.576;2023-04-25T03:12:33;11.27;;;9.40;;
11121;SDS011;5615;49.304;10.576;2023-04-25T03:14:59;10.33;;;9.07;;
11121;SDS011;5615;49.304;10.576;2023-04-25T03:17:26;10.10;;;9.00;;
11121;SDS011;5615;49.304;10.576;2023-04-25T03:19:53;11.00;;;9.07;;
11121;SDS011;5615;49.304;10.576;2023-04-25T03:22:22;10.50;;;9.13;;
11121;SDS011;5615;49.304;10.576;2023-04-25T03:24:49;17.87;;;9.67;;
11121;SDS011;5615;49.304;10.576;2023-04-25T03:27:16;10.47;;;8.70;;
11121;SDS011;5615;49.304;10.576;2023-04-25T03:29:43;10.07;;;8.87;;
11121;SDS011;5615;49.304;10.576;2023-04-25T03:32:09;10.43;;;9.33;;
11121;SDS011;5615;49.304;10.576;2023-04-25T03:34:36;11.80;;;9.50;;
11121;SDS011;5615;49.304;10.576;2023-04-25T03:37:03;10.50;;;9.40;;
11121;SDS011;5615;49.304;10.576;2023-04-25T03:39:30;10.37;;;8.97;;
11121;SDS011;5615;49.304;10.576;2023-04-25T03:41:57;12.83;;;9.77;;
11121;SDS011;5615;49.304;10.576;2023-04-25T03:44:24;11.13;;;9.77;;
11121;SDS011;5615;49.304;10.576;2023-04-25T03:46:50;9.80;;;8.77;;
11121;SDS011;5615;49.304;10.576;2023-04-25T03:49:17;10.73;;;9.60;;
11121;SDS011;5615;49.304;10.576;2023-04-25T03:51:44;13.53;;;9.93;;
11121;SDS011;5615;49.304;10.576;2023-04-25T03:54:10;10.77;;;9.30;;
11121;SDS011;5615;49.304;10.576;2023-04-25T03:56:38;11.20;;;9.17;;
11121;SDS011;5615;49.304;10.576;2023-04-25T03:59:05;11.70;;;9.50;;
11121;SDS011;5615;49.304;10.576;2023-04-25T04:01:32;11.70;;;9.60;;
11121;SDS011;5615;49.304;10.576;2023-04-25T04:03:58;10.53;;;8.87;;
11121;SDS011;5615;49.304;10.576;2023-04-25T04:06:25;9.83;;;8.77;;
11121;SDS011;5615;49.304;10.576;2023-04-25T04:08:52;11.00;;;9.27;;
11121;SDS011;5615;49.304;10.576;2023-04-25T04:11:19;10.53;;;8.83;;
11121;SDS011;5615;49.304;10.576;2023-04-25T04:13:47;10.47;;;9.00;;
11121;SDS011;5615;49.304;10.576;2023-04-25T04:16:14;9.30;;;8.30;;
11121;SDS011;5615;49.304;10.576;2023-04-25T04:18:40;11.53;;;9.43;;
11121;SDS011;5615;49.304;10.576;2023-04-25T04:21:07;11.27;;;9.17;;
11121;SDS011;5615;49.304;10.576;2023-04-25T04:23:34;10.40;;;8.97;;
11121;SDS011;5615;49.304;10.576;2023-04-25T04:26:01;10.20;;;8.60;;
11121;SDS011;5615;49.304;10.576;2023-04-25T04:28:27;9.93;;;8.47;;
11121;SDS011;5615;49.304;10.576;2023-04-25T04:30:56;10.37;;;9.00;;
11121;SDS011;5615;49.304;10.576;2023-04-25T04:33:22;11.60;;;9.47;;
11121;SDS011;5615;49.304;10.576;2023-04-25T04:35:50;10.27;;;8.67;;
11121;SDS011;5615;49.304;10.576;2023-04-25T04:38:17;12.03;;;9.20;;
11121;SDS011;5615;49.304;10.576;2023-04-25T04:40:45;10.80;;;9.20;;
11121;SDS011;5615;49.304;10.576;2023-04-25T04:43:12;10.27;;;9.17;;
11121;SDS011;5615;49.304;10.576;2023-04-25T04:45:42;10.27;;;8.90;;
11121;SDS011;5615;49.304;10.576;2023-04-25T04:48:10;12.87;;;8.93;;
11121;SDS011;5615;49.304;10.576;2023-04-25T04:50:39;10.93;;;9.47;;
11121;SDS011;5615;49.304;10.576;2023-04-25T04:53:06;10.13;;;9.00;;
11121;SDS011;5615;49.304;10.576;2023-04-25T04:55:33;13.60;;;9.63;;
11121;SDS011;5615;49.304;10.576;2023-04-25T04:57:59;12.47;;;9.67;;
11121;SDS011;5615;49.304;10.576;2023-04-25T05:00:26;10.77;;;9.07;;
11121;SDS011;5615;49.304;10.576;2023-04-25T05:02:54;10.33;;;9.00;;
11121;SDS011;5615;49.304;10.576;2023-04-25T05:05:22;12.70;;;10.10;;
11121;SDS011;5615;49.304;10.576;2023-04-25T05:07:48;11.57;;;9.43;;
11121;SDS011;5615;49.304;10.576;2023-04-25T05:10:16;10.73;;;9.37;;
11121;SDS011;5615;49.304;10.576;2023-04-25T05:12:43;11.40;;;9.70;;
11121;SDS011;5615;49.304;10.576;2023-04-25T05:15:10;11.70;;;9.60;;
11121;SDS011;5615;49.304;10.576;2023-04-25T05:17:37;11.27;;;9.13;;
11121;SDS011;5615;49.304;10.576;2023-04-25T05:20:04;11.20;;;9.10;;
11121;SDS011;5615;49.304;10.576;2023-04-25T05:22:33;12.07;;;9.53;;
11121;SDS011;5615;49.304;10.576;2023-04-25T05:24:59;10.63;;;8.97;;
11121;SDS011;5615;49.304;10.576;2023-04-25T05:27:26;10.97;;;9.57;;
11121;SDS011;5615;49.304;10.576;2023-04-25T05:29:53;10.90;;;9.47;;
11121;SDS011;5615;49.304;10.576;2023-04-25T05:32:19;10.87;;;9.40;;
11121;SDS011;5615;49.304;10.576;2023-04-25T05:34:46;11.80;;;9.30;;
11121;SDS011;5615;49.304;10.576;2023-04-25T05:37:12;9.57;;;8.57;;
11121;SDS011;5615;49.304;10.576;2023-04-25T05:39:40;10.83;;;9.23;;
11121;SDS011;5615;49.304;10.576;2023-04-25T05:42:07;10.07;;;8.87;;
11121;SDS011;5615;49.304;10.576;2023-04-25T05:44:34;10.30;;;8.73;;
11121;SDS011;5615;49.304;10.576;2023-04-25T05:47:00;11.77;;;8.87;;
11121;SDS011;5615;49.304;10.576;2023-04-25T05:49:29;10.10;;;8.83;;
11121;SDS011;5615;49.304;10.576;2023-04-25T05:51:55;10.63;;;8.73;;
11121;SDS011;5615;49.304;10.576;2023-04-25T05:54:22;10.87;;;8.13;;
11121;SDS011;5615;49.304;10.576;2023-04-25T05:56:50;9.33;;;8.17;;
11121;SDS011;5615;49.304;10.576;2023-04-25T05:59:17;10.07;;;8.80;;
11121;SDS011;5615;49.304;10.576;2023-04-25T06:01:43;11.80;;;9.83;;
11121;SDS011;5615;49.304;10.576;2023-04-25T06:04:10;9.97;;;8.80;;
11121;SDS011;5615;49.304;10.576;2023-04-25T06:06:37;11.43;;;9.90;;
11121;SDS011;5615;49.304;10.576;2023-04-25T06:09:03;10.53;;;8.60;;
11121;SDS011;5615;49.304;10.576;2023-04-25T06:11:30;10.90;;;9.73;;
11121;SDS011;5615;49.304;10.576;2023-04-25T06:13:58;11.20;;;9.37;;
11121;SDS011;5615;49.304;10.576;2023-04-25T06:16:25;11.90;;;9.80;;
11121;SDS011;5615;49.304;10.576;2023-04-25T06:18:52;12.63;;;10.20;;
11121;SDS011;5615;49.304;10.576;2023-04-25T06:21:18;11.90;;;9.60;;
11121;SDS011;5615;49.304;10.576;2023-04-25T06:23:45;12.23;;;10.50;;
11121;SDS011;5615;49.304;10.576;2023-04-25T06:26:11;10.93;;;9.57;;
11121;SDS011;5615;49.304;10.576;2023-04-25T06:28:38;11.50;;;9.93;;
11121;SDS011;5615;49.304;10.576;2023-04-25T06:31:06;12.03;;;9.73;;
11121;SDS011;5615;49.304;10.576;2023-04-25T06:33:33;10.83;;;9.73;;
11121;SDS011;5615;49.304;10.576;2023-04-25T06:35:59;10.07;;;8.77;;
11121;SDS011;5615;49.304;10.576;2023-04-25T06:38:26;11.77;;;9.67;;
11121;SDS011;5615;49.304;10.576;2023-04-25T06:40:53;11.37;;;9.63;;
11121;SDS011;5615;49.304;10.576;2023-04-25T06:43:19;10.37;;;9.27;;
11121;SDS011;5615;49.304;10.576;2023-04-25T06:45:46;10.30;;;9.20;;
11121;SDS011;5615;49.304;10.576;2023-04-25T06:48:14;10.37;;;9.10;;
11121;SDS011;5615;49.304;10.576;2023-04-25T06:50:41;11.07;;;9.67;;
11121;SDS011;5615;49.304;10.576;2023-04-25T06:53:07;9.77;;;8.70;;
11121;SDS011;5615;49.304;10.576;2023-04-25T06:55:36;10.87;;;8.30;;
11121;SDS011;5615;49.304;10.576;2023-04-25T06:58:03;10.37;;;8.93;;
11121;SDS011;5615;49.304;10.576;2023-04-25T07:00:29;9.70;;;8.70;;
11121;SDS011;5615;49.304;10.576;2023-04-25T07:02:57;8.43;;;7.13;;
11121;SDS011;5615;49.304;10.576;2023-04-25T07:05:25;8.50;;;7.70;;
11121;SDS011;5615;49.304;10.576;2023-04-25T07:07:51;11.40;;;8.83;;
11121;SDS011;5615;49.304;10.576;2023-04-25T07:10:18;9.53;;;8.20;;
11121;SDS011;5615;49.304;10.576;2023-04-25T07:12:46;9.97;;;8.20;;
11121;SDS011;5615;49.304;10.576;2023-04-25T07:15:12;9.70;;;8.47;;
11121;SDS011;5615;49.304;10.576;2023-04-25T07:17:39;10.67;;;9.07;;
11121;SDS011;5615;49.304;10.576;2023-04-25T07:20:06;10.77;;;9.67;;
11121;SDS011;5615;49.304;10.576;2023-04-25T07:22:35;10.27;;;9.27;;
11121;SDS011;5615;49.304;10.576;2023-04-25T07:25:02;11.10;;;9.37;;
11121;SDS011;5615;49.304;10.576;2023-04-25T07:27:29;10.93;;;9.13;;
11121;SDS011;5615;49.304;10.576;2023-04-25T07:29:56;11.27;;;9.03;;
11121;SDS011;5615;49.304;10.576;2023-04-25T07:32:22;11.17;;;9.30;;
11121;SDS011;5615;49.304;10.576;2023-04-25T07:34:49;11.73;;;9.87;;
11121;SDS011;5615;49.304;10.576;2023-04-25T07:37:16;13.10;;;10.00;;
11121;SDS011;5615;49.304;10.576;2023-04-25T07:39:45;10.87;;;8.43;;
11121;SDS011;5615;49.304;10.576;2023-04-25T07:42:12;11.93;;;8.80;;
11121;SDS011;5615;49.304;10.576;2023-04-25T07:44:38;9.77;;;8.73;;
11121;SDS011;5615;49.304;10.576;2023-04-25T07:47:05;9.80;;;8.43;;
11121;SDS011;5615;49.304;10.576;2023-04-25T07:49:32;9.47;;;8.47;;
11121;SDS011;5615;49.304;10.576;2023-04-25T07:52:00;8.07;;;7.27;;
11121;SDS011;5615;49.304;10.576;2023-04-25T07:54:27;9.90;;;7.50;;
11121;SDS011;5615;49.304;10.576;2023-04-25T07:56:55;7.60;;;6.80;;
11121;SDS011;5615;49.304;10.576;2023-04-25T07:59:21;8.50;;;7.43;;
11121;SDS011;5615;49.304;10.576;2023-04-25T08:01:48;8.57;;;7.60;;
11121;SDS011;5615;49.304;10.576;2023-04-25T08:04:15;8.30;;;7.40;;
11121;SDS011;5615;49.304;10.576;2023-04-25T08:06:42;8.07;;;7.27;;
11121;SDS011;5615;49.304;10.576;2023-04-25T08:09:09;9.57;;;7.67;;
11121;SDS011;5615;49.304;10.576;2023-04-25T08:11:36;10.23;;;7.60;;
11121;SDS011;5615;49.304;10.576;2023-04-25T08:14:04;8.67;;;6.90;;
11121;SDS011;5615;49.304;10.576;2023-04-25T08:16:31;8.20;;;7.40;;
11121;SDS011;5615;49.304;10.576;2023-04-25T08:18:58;9.77;;;7.70;;
11121;SDS011;5615;49.304;10.576;2023-04-25T08:21:25;8.00;;;7.20;;
11121;SDS011;5615;49.304;10.576;2023-04-25T08:23:52;9.17;;;7.07;;
11121;SDS011;5615;49.304;10.576;2023-04-25T08:26:19;11.67;;;7.73;;
11121;SDS011;5615;49.304;10.576;2023-04-25T08:28:46;8.30;;;6.93;;
11121;SDS011;5615;49.304;10.576;2023-04-25T08:31:14;8.10;;;6.83;;
11121;SDS011;5615;49.304;10.576;2023-04-25T08:33:40;10.80;;;7.17;;
11121;SDS011;5615;49.304;10.576;2023-04-25T08:36:07;7.27;;;6.40;;
11121;SDS011;5615;49.304;10.576;2023-04-25T08:38:34;9.27;;;7.30;;
11121;SDS011;5615;49.304;10.576;2023-04-25T08:41:01;8.67;;;7.43;;
11121;SDS011;5615;49.304;10.576;2023-04-25T08:43:28;9.73;;;8.20;;
11121;SDS011;5615;49.304;10.576;2023-04-25T08:45:56;8.73;;;7.83;;
11121;SDS011;5615;49.304;10.576;2023-04-25T08:48:27;10.90;;;8.00;;
11121;SDS011;5615;49.304;10.576;2023-04-25T08:50:56;11.17;;;6.87;;
11121;SDS011;5615;49.304;10.576;2023-04-25T08:53:25;8.67;;;6.70;;
11121;SDS011;5615;49.304;10.576;2023-04-25T08:55:53;6.93;;;6.33;;
11121;SDS011;5615;49.304;10.576;2023-04-25T08:58:20;6.73;;;6.03;;
11121;SDS011;5615;49.304;10.576;2023-04-25T09:00:47;6.27;;;5.20;;
11121;SDS011;5615;49.304;10.576;2023-04-25T09:03:14;9.40;;;5.87;;
11121;SDS011;5615;49.304;10.576;2023-04-25T09:05:43;8.10;;;5.57;;
11121;SDS011;5615;49.304;10.576;2023-04-25T09:08:10;9.40;;;6.60;;
11121;SDS011;5615;49.304;10.576;2023-04-25T09:10:37;9.63;;;7.00;;
11121;SDS011;5615;49.304;10.576;2023-04-25T09:13:05;8.00;;;7.07;;
11121;SDS011;5615;49.304;10.576;2023-04-25T09:15:34;8.97;;;6.90;;
11121;SDS011;5615;49.304;10.576;2023-04-25T09:18:13;6.90;;;6.17;;
11121;SDS011;5615;49.304;10.576;2023-04-25T09:20:41;6.87;;;5.93;;
11121;SDS011;5615;49.304;10.576;2023-04-25T09:23:09;6.93;;;5.50;;
11121;SDS011;5615;49.304;10.576;2023-04-25T09:25:36;8.20;;;6.33;;
11121;SDS011;5615;49.304;10.576;2023-04-25T09:28:04;8.23;;;6.47;;
11121;SDS011;5615;49.304;10.576;2023-04-25T09:30:33;7.43;;;6.43;;
11121;SDS011;5615;49.304;10.576;2023-04-25T09:33:04;6.97;;;5.90;;
11121;SDS011;5615;49.304;10.576;2023-04-25T09:35:35;6.43;;;5.83;;
11121;SDS011;5615;49.304;10.576;2023-04-25T09:38:08;6.53;;;5.70;;
11121;SDS011;5615;49.304;10.576;2023-04-25T09:40:38;5.93;;;5.33;;
11121;SDS011;5615;49.304;10.576;2023-04-25T09:43:08;7.70;;;6.90;;
11121;SDS011;5615;49.304;10.576;2023-04-25T09:45:40;9.90;;;6.20;;
11121;SDS011;5615;49.304;10.576;2023-04-25T09:48:10;8.27;;;6.00;;
11121;SDS011;5615;49.304;10.576;2023-04-25T09:50:38;9.27;;;6.43;;
11121;SDS011;5615;49.304;10.576;2023-04-25T09:53:05;7.17;;;5.90;;
11121;SDS011;5615;49.304;10.576;2023-04-25T09:55:33;6.40;;;5.80;;
11121;SDS011;5615;49.304;10.576;2023-04-25T09:58:02;5.83;;;5.00;;
11121;SDS011;5615;49.304;10.576;2023-04-25T10:00:31;7.30;;;5.20;;
11121;SDS011;5615;49.304;10.576;2023-04-25T10:02:59;6.03;;;5.07;;
11121;SDS011;5615;49.304;10.576;2023-04-25T10:05:28;5.70;;;5.00;;
11121;SDS011;5615;49.304;10.576;2023-04-25T10:07:56;8.80;;;5.53;;
11121;SDS011;5615;49.304;10.576;2023-04-25T10:10:24;7.73;;;5.80;;
11121;SDS011;5615;49.304;10.576;2023-04-25T10:12:54;8.17;;;5.50;;
11121;SDS011;5615;49.304;10.576;2023-04-25T10:15:21;5.80;;;4.10;;
11121;SDS011;5615;49.304;10.576;2023-04-25T10:17:48;5.50;;;4.30;;
11121;SDS011;5615;49.304;10.576;2023-04-25T10:20:16;4.57;;;4.17;;
11121;SDS011;5615;49.304;10.576;2023-04-25T10:22:44;7.18;;;4.43;;
11121;SDS011;5615;49.304;10.576;2023-04-25T10:25:12;3.83;;;3.30;;
11121;SDS011;5615;49.304;10.576;2023-04-25T10:27:40;5.23;;;3.77;;
11121;SDS011;5615;49.304;10.576;2023-04-25T10:30:09;6.37;;;4.07;;
11121;SDS011;5615;49.304;10.576;2023-04-25T10:32:41;5.70;;;4.07;;
11121;SDS011;5615;49.304;10.576;2023-04-25T10:35:11;5.03;;;3.58;;
11121;SDS011;5615;49.304;10.576;2023-04-25T10:40:29;4.17;;;3.30;;
11121;SDS011;5615;49.304;10.576;2023-04-25T10:42:57;5.93;;;3.43;;
11121;SDS011;5615;49.304;10.576;2023-04-25T10:46:00;4.83;;;3.83;;
11121;SDS011;5615;49.304;10.576;2023-04-25T10:48:27;4.30;;;3.90;;
11121;SDS011;5615;49.304;10.576;2023-04-25T10:51:06;4.30;;;3.90;;
11121;SDS011;5615;49.304;10.576;2023-04-25T10:53:33;7.17;;;4.10;;
11121;SDS011;5615;49.304;10.576;2023-04-25T10:56:00;5.23;;;3.57;;
11121;SDS011;5615;49.304;10.576;2023-04-25T10:58:35;4.27;;;3.87;;
11121;SDS011;5615;49.304;10.576;2023-04-25T11:01:03;3.83;;;3.33;;
11121;SDS011;5615;49.304;10.576;2023-04-25T11:03:30;4.57;;;3.23;;
11121;SDS011;5615;49.304;10.576;2023-04-25T11:05:57;6.03;;;3.73;;
11121;SDS011;5615;49.304;10.576;2023-04-25T11:08:34;6.23;;;3.70;;
11121;SDS011;5615;49.304;10.576;2023-04-25T11:11:11;4.87;;;3.60;;
11121;SDS011;5615;49.304;10.576;2023-04-25T11:13:37;5.30;;;4.00;;
11121;SDS011;5615;49.304;10.576;2023-04-25T11:16:07;5.73;;;3.80;;
11121;SDS011;5615;49.304;10.576;2023-04-25T11:18:34;5.03;;;4.10;;
11121;SDS011;5615;49.304;10.576;2023-04-25T11:21:03;4.97;;;4.47;;
11121;SDS011;5615;49.304;10.576;2023-04-25T11:23:29;7.33;;;4.57;;
11121;SDS011;5615;49.304;10.576;2023-04-25T11:25:56;7.97;;;6.10;;
11121;SDS011;5615;49.304;10.576;2023-04-25T11:28:25;20.13;;;18.17;;
11121;SDS011;5615;49.304;10.576;2023-04-25T11:30:52;5.30;;;3.97;;
11121;SDS011;5615;49.304;10.576;2023-04-25T11:33:24;15.73;;;12.37;;
11121;SDS011;5615;49.304;10.576;2023-04-25T11:35:52;8.50;;;3.87;;
11121;SDS011;5615;49.304;10.576;2023-04-25T11:38:20;6.00;;;4.80;;
11121;SDS011;5615;49.304;10.576;2023-04-25T11:40:49;6.83;;;4.30;;
11121;SDS011;5615;49.304;10.576;2023-04-25T11:43:17;7.77;;;4.27;;
11121;SDS011;5615;49.304;10.576;2023-04-25T11:45:46;5.50;;;3.83;;
11121;SDS011;5615;49.304;10.576;2023-04-25T11:48:13;5.07;;;3.77;;
11121;SDS011;5615;49.304;10.576;2023-04-25T11:50:41;4.97;;;3.97;;
11121;SDS011;5615;49.304;10.576;2023-04-25T11:53:08;5.37;;;3.50;;
11121;SDS011;5615;49.304;10.576;2023-04-25T11:55:35;3.80;;;3.00;;
11121;SDS011;5615;49.304;10.576;2023-04-25T11:58:02;5.13;;;3.10;;
11121;SDS011;5615;49.304;10.576;2023-04-25T12:00:30;4.83;;;3.30;;
11121;SDS011;5615;49.304;10.576;2023-04-25T12:02:57;4.90;;;3.47;;
11121;SDS011;5615;49.304;10.576;2023-04-25T12:05:25;4.17;;;3.50;;
11121;SDS011;5615;49.304;10.576;2023-04-25T12:07:54;6.87;;;3.47;;
11121;SDS011;5615;49.304;10.576;2023-04-25T12:10:20;4.53;;;3.53;;
11121;SDS011;5615;49.304;10.576;2023-04-25T12:12:47;5.00;;;3.37;;
11121;SDS011;5615;49.304;10.576;2023-04-25T12:15:15;4.40;;;3.50;;
11121;SDS011;5615;49.304;10.576;2023-04-25T12:17:44;5.10;;;3.10;;
11121;SDS011;5615;49.304;10.576;2023-04-25T12:20:12;4.77;;;3.50;;
11121;SDS011;5615;49.304;10.576;2023-04-25T12:22:40;7.57;;;3.67;;
11121;SDS011;5615;49.304;10.576;2023-04-25T12:25:10;5.53;;;3.40;;
11121;SDS011;5615;49.304;10.576;2023-04-25T12:27:38;4.03;;;3.10;;
11121;SDS011;5615;49.304;10.576;2023-04-25T12:30:07;8.47;;;6.07;;
11121;SDS011;5615;49.304;10.576;2023-04-25T12:32:35;4.13;;;3.73;;
11121;SDS011;5615;49.304;10.576;2023-04-25T12:35:02;4.83;;;4.33;;
11121;SDS011;5615;49.304;10.576;2023-04-25T12:37:29;4.63;;;3.80;;
11121;SDS011;5615;49.304;10.576;2023-04-25T12:39:56;5.60;;;4.20;;
11121;SDS011;5615;49.304;10.576;2023-04-25T12:42:24;6.47;;;3.77;;
11121;SDS011;5615;49.304;10.576;2023-04-25T12:44:51;4.33;;;3.93;;
11121;SDS011;5615;49.304;10.576;2023-04-25T12:47:17;5.17;;;3.70;;
11121;SDS011;5615;49.304;10.576;2023-04-25T12:49:44;5.77;;;3.80;;
11121;SDS011;5615;49.304;10.576;2023-04-25T12:52:10;5.40;;;3.70;;
11121;SDS011;5615;49.304;10.576;2023-04-25T12:54:37;4.90;;;4.00;;
11121;SDS011;5615;49.304;10.576;2023-04-25T12:57:04;4.93;;;3.80;;
11121;SDS011;5615;49.304;10.576;2023-04-25T12:59:32;6.23;;;4.53;;
11121;SDS011;5615;49.304;10.576;2023-04-25T13:01:58;7.00;;;4.40;;
11121;SDS011;5615;49.304;10.576;2023-04-25T13:04:25;4.70;;;3.70;;
11121;SDS011;5615;49.304;10.576;2023-04-25T13:06:51;4.60;;;4.00;;
11121;SDS011;5615;49.304;10.576;2023-04-25T13:09:18;6.30;;;4.47;;
11121;SDS011;5615;49.304;10.576;2023-04-25T13:11:45;5.87;;;4.40;;
11121;SDS011;5615;49.304;10.576;2023-04-25T13:14:12;6.03;;;4.23;;
11121;SDS011;5615;49.304;10.576;2023-04-25T13:16:40;5.87;;;3.90;;
11121;SDS011;5615;49.304;10.576;2023-04-25T13:19:07;6.20;;;3.70;;
11121;SDS011;5615;49.304;10.576;2023-04-25T13:21:36;7.67;;;4.30;;
11121;SDS011;5615;49.304;10.576;2023-04-25T13:24:03;5.40;;;4.20;;
11121;SDS011;5615;49.304;10.576;2023-04-25T13:26:30;5.87;;;4.23;;
11121;SDS011;5615;49.304;10.576;2023-04-25T13:28:56;6.07;;;4.33;;
11121;SDS011;5615;49.304;10.576;2023-04-25T13:31:25;7.73;;;4.53;;
11121;SDS011;5615;49.304;10.576;2023-04-25T13:33:53;5.27;;;4.63;;
11121;SDS011;5615;49.304;10.576;2023-04-25T13:36:20;6.87;;;4.47;;
11121;SDS011;5615;49.304;10.576;2023-04-25T13:38:46;7.23;;;4.93;;
11121;SDS011;5615;49.304;10.576;2023-04-25T13:41:14;7.10;;;4.60;;
11121;SDS011;5615;49.304;10.576;2023-04-25T13:43:43;8.23;;;4.57;;
11121;SDS011;5615;49.304;10.576;2023-04-25T13:46:11;6.73;;;4.37;;
11121;SDS011;5615;49.304;10.576;2023-04-25T13:48:40;6.37;;;4.00;;
11121;SDS011;5615;49.304;10.576;2023-04-25T13:51:12;7.37;;;4.83;;
11121;SDS011;5615;49.304;10.576;2023-04-25T13:53:40;5.30;;;3.83;;
11121;SDS011;5615;49.304;10.576;2023-04-25T13:56:07;3.93;;;3.40;;
11121;SDS011;5615;49.304;10.576;2023-04-25T13:58:34;6.00;;;3.60;;
11121;SDS011;5615;49.304;10.576;2023-04-25T14:01:00;8.27;;;5.60;;
11121;SDS011;5615;49.304;10.576;2023-04-25T14:03:28;5.03;;;3.90;;
11121;SDS011;5615;49.304;10.576;2023-04-25T14:05:55;3.77;;;3.43;;
11121;SDS011;5615;49.304;10.576;2023-04-25T14:08:23;4.60;;;3.60;;
11121;SDS011;5615;49.304;10.576;2023-04-25T14:10:50;7.40;;;4.80;;
11121;SDS011;5615;49.304;10.576;2023-04-25T14:13:16;5.47;;;4.13;;
11121;SDS011;5615;49.304;10.576;2023-04-25T14:15:43;4.00;;;3.60;;
11121;SDS011;5615;49.304;10.576;2023-04-25T14:18:10;5.63;;;4.20;;
11121;SDS011;5615;49.304;10.576;2023-04-25T14:20:36;5.77;;;3.73;;
11121;SDS011;5615;49.304;10.576;2023-04-25T14:23:03;6.53;;;3.80;;
11121;SDS011;5615;49.304;10.576;2023-04-25T14:25:31;6.00;;;4.07;;
11121;SDS011;5615;49.304;10.576;2023-04-25T14:27:58;5.63;;;3.93;;
11121;SDS011;5615;49.304;10.576;2023-04-25T14:30:25;4.57;;;3.75;;
11121;SDS011;5615;49.304;10.576;2023-04-25T14:32:51;5.05;;;4.15;;
11121;SDS011;5615;49.304;10.576;2023-04-25T14:35:18;5.10;;;3.78;;
11121;SDS011;5615;49.304;10.576;2023-04-25T14:37:44;4.85;;;3.42;;
11121;SDS011;5615;49.304;10.576;2023-04-25T14:40:12;5.90;;;4.03;;
11121;SDS011;5615;49.304;10.576;2023-04-25T14:42:41;6.77;;;4.30;;
11121;SDS011;5615;49.304;10.576;2023-04-25T14:45:08;5.67;;;4.27;;
11121;SDS011;5615;49.304;10.576;2023-04-25T14:47:35;8.30;;;4.67;;